Autaugaville, Alabama
Current Conditions -  °F | °C
As of 11:35 AM on Thursday 30 Oct 2014 (Local Time) from K1A9 Reporting Station
Clear Clear  
Wind Chill: 64°   Ceiling: Unl
Heat Index: 64°   Visibility: 10mi
Dew Point: 40°   Wind: 10mph
Humidity: 40%   Direction: 360°N
Pressure: 30.1"   Gusts: NA
Location:  32.43°N, 86.65°W
Report Text: K1A9 301635Z AUTO 36009KT 10SM CLR 18/04 A3010 RMK AO2 T01800042
Loading
Personal Weather Stations






























Interactive Weather Map
Tropical Storm Tracking
New forecast layout! Learn more

10-Day Weather Forecast

Advertisements
Track Severe Weather on mobile